Terminal Aerodrome Forecast
Issued by NWS Detroit/Pontiac, MI

Home | Current Version | Previous Version | Text Only | Print | Product List | Glossary On
Versions: 1 2 3 4 5 6 7 8 9 10 11 12 13 14 15 16 17 18
865
FTUS43 KDTX 071729
TAFFNT
TAF
KFNT 071729Z 0718/0818 20012G21KT P6SM OVC080
     FM080000 22008KT P6SM SCT035 OVC050
      TEMPO 0800/0803 -RA OVC035
     FM080300 24007KT P6SM OVC028
     FM081000 23005KT 6SM BR SCT010 OVC100
     FM081600 25005KT 6SM -SHSN OVC025=

USA.gov is the U.S. government's official web portal to all federal, state and local government web resources and services.